sensor_id;sensor_type;location;lat;lon;timestamp;P1;durP1;ratioP1;P2;durP2;ratioP2
29430;SDS011;16404;49.902;10.074;2023-01-01T00:01:43;94.30;;;51.83;;
29430;SDS011;16404;49.902;10.074;2023-01-01T00:04:27;84.30;;;50.20;;
29430;SDS011;16404;49.902;10.074;2023-01-01T00:07:12;85.25;;;50.90;;
29430;SDS011;16404;49.902;10.074;2023-01-01T00:09:57;80.55;;;47.95;;
29430;SDS011;16404;49.902;10.074;2023-01-01T00:13:00;86.38;;;50.15;;
29430;SDS011;16404;49.902;10.074;2023-01-01T00:15:44;68.88;;;42.63;;
29430;SDS011;16404;49.902;10.074;2023-01-01T00:18:29;71.00;;;41.95;;
29430;SDS011;16404;49.902;10.074;2023-01-01T00:21:14;73.95;;;43.03;;
29430;SDS011;16404;49.902;10.074;2023-01-01T00:23:59;66.63;;;38.50;;
29430;SDS011;16404;49.902;10.074;2023-01-01T00:26:43;72.00;;;42.70;;
29430;SDS011;16404;49.902;10.074;2023-01-01T00:29:28;65.32;;;38.40;;
29430;SDS011;16404;49.902;10.074;2023-01-01T00:32:12;62.75;;;34.78;;
29430;SDS011;16404;49.902;10.074;2023-01-01T00:34:57;53.78;;;30.23;;
29430;SDS011;16404;49.902;10.074;2023-01-01T00:37:42;48.25;;;29.08;;
29430;SDS011;16404;49.902;10.074;2023-01-01T00:40:27;47.78;;;29.17;;
29430;SDS011;16404;49.902;10.074;2023-01-01T00:43:12;47.03;;;27.65;;
29430;SDS011;16404;49.902;10.074;2023-01-01T00:45:56;43.75;;;25.13;;
29430;SDS011;16404;49.902;10.074;2023-01-01T00:48:41;44.42;;;24.98;;
29430;SDS011;16404;49.902;10.074;2023-01-01T00:51:25;34.15;;;21.05;;
29430;SDS011;16404;49.902;10.074;2023-01-01T00:54:10;35.20;;;20.38;;
29430;SDS011;16404;49.902;10.074;2023-01-01T00:56:55;29.77;;;18.70;;
29430;SDS011;16404;49.902;10.074;2023-01-01T01:02:25;27.85;;;16.23;;
29430;SDS011;16404;49.902;10.074;2023-01-01T01:05:09;24.27;;;15.73;;
29430;SDS011;16404;49.902;10.074;2023-01-01T01:07:54;29.83;;;15.02;;
29430;SDS011;16404;49.902;10.074;2023-01-01T01:10:38;25.70;;;14.25;;
29430;SDS011;16404;49.902;10.074;2023-01-01T01:13:23;22.90;;;14.60;;
29430;SDS011;16404;49.902;10.074;2023-01-01T01:16:09;21.38;;;12.32;;
29430;SDS011;16404;49.902;10.074;2023-01-01T01:19:01;20.58;;;12.35;;
29430;SDS011;16404;49.902;10.074;2023-01-01T01:21:47;17.77;;;10.80;;
29430;SDS011;16404;49.902;10.074;2023-01-01T01:24:32;16.60;;;10.40;;
29430;SDS011;16404;49.902;10.074;2023-01-01T01:27:16;17.02;;;9.82;;
29430;SDS011;16404;49.902;10.074;2023-01-01T01:30:01;16.23;;;9.57;;
29430;SDS011;16404;49.902;10.074;2023-01-01T01:32:45;17.10;;;9.63;;
29430;SDS011;16404;49.902;10.074;2023-01-01T01:35:30;13.00;;;8.63;;
29430;SDS011;16404;49.902;10.074;2023-01-01T01:38:16;14.63;;;9.05;;
29430;SDS011;16404;49.902;10.074;2023-01-01T01:41:00;17.38;;;8.88;;
29430;SDS011;16404;49.902;10.074;2023-01-01T01:43:49;19.85;;;10.80;;
29430;SDS011;16404;49.902;10.074;2023-01-01T01:46:40;17.07;;;9.53;;
29430;SDS011;16404;49.902;10.074;2023-01-01T01:49:27;15.70;;;8.63;;
29430;SDS011;16404;49.902;10.074;2023-01-01T01:52:14;17.20;;;8.63;;
29430;SDS011;16404;49.902;10.074;2023-01-01T01:54:59;17.48;;;9.32;;
29430;SDS011;16404;49.902;10.074;2023-01-01T01:57:45;13.73;;;8.77;;
29430;SDS011;16404;49.902;10.074;2023-01-01T02:00:29;12.35;;;8.30;;
29430;SDS011;16404;49.902;10.074;2023-01-01T02:03:35;16.75;;;8.70;;
29430;SDS011;16404;49.902;10.074;2023-01-01T02:06:40;20.63;;;9.23;;
29430;SDS011;16404;49.902;10.074;2023-01-01T02:09:24;11.75;;;8.40;;
29430;SDS011;16404;49.902;10.074;2023-01-01T02:12:09;13.90;;;8.45;;
29430;SDS011;16404;49.902;10.074;2023-01-01T02:14:54;16.33;;;8.63;;
29430;SDS011;16404;49.902;10.074;2023-01-01T02:17:43;16.42;;;9.30;;
29430;SDS011;16404;49.902;10.074;2023-01-01T02:21:01;15.15;;;8.80;;
29430;SDS011;16404;49.902;10.074;2023-01-01T02:27:16;14.10;;;8.82;;
29430;SDS011;16404;49.902;10.074;2023-01-01T02:30:10;14.63;;;9.25;;
29430;SDS011;16404;49.902;10.074;2023-01-01T02:32:57;14.38;;;8.98;;
29430;SDS011;16404;49.902;10.074;2023-01-01T02:35:49;15.00;;;9.02;;
29430;SDS011;16404;49.902;10.074;2023-01-01T02:38:39;19.30;;;9.57;;
29430;SDS011;16404;49.902;10.074;2023-01-01T02:41:28;16.33;;;9.27;;
29430;SDS011;16404;49.902;10.074;2023-01-01T02:44:16;16.88;;;9.48;;
29430;SDS011;16404;49.902;10.074;2023-01-01T02:47:06;18.92;;;9.70;;
29430;SDS011;16404;49.902;10.074;2023-01-01T02:55:38;21.60;;;11.02;;
29430;SDS011;16404;49.902;10.074;2023-01-01T02:59:07;18.50;;;10.32;;
29430;SDS011;16404;49.902;10.074;2023-01-01T03:02:40;20.33;;;11.65;;
29430;SDS011;16404;49.902;10.074;2023-01-01T03:12:29;22.77;;;12.68;;
29430;SDS011;16404;49.902;10.074;2023-01-01T03:18:23;23.83;;;13.07;;
29430;SDS011;16404;49.902;10.074;2023-01-01T03:21:15;25.45;;;14.07;;
29430;SDS011;16404;49.902;10.074;2023-01-01T03:24:04;26.13;;;14.20;;
29430;SDS011;16404;49.902;10.074;2023-01-01T03:26:53;23.67;;;14.18;;
29430;SDS011;16404;49.902;10.074;2023-01-01T03:29:42;25.70;;;14.40;;
29430;SDS011;16404;49.902;10.074;2023-01-01T03:32:33;23.67;;;14.23;;
29430;SDS011;16404;49.902;10.074;2023-01-01T03:38:34;25.70;;;14.13;;
29430;SDS011;16404;49.902;10.074;2023-01-01T03:44:32;29.17;;;15.25;;
29430;SDS011;16404;49.902;10.074;2023-01-01T03:47:40;26.25;;;15.38;;
29430;SDS011;16404;49.902;10.074;2023-01-01T03:50:29;23.83;;;13.82;;
29430;SDS011;16404;49.902;10.074;2023-01-01T03:53:38;33.55;;;16.98;;
29430;SDS011;16404;49.902;10.074;2023-01-01T03:56:34;32.20;;;18.92;;
29430;SDS011;16404;49.902;10.074;2023-01-01T03:59:33;33.35;;;18.58;;
29430;SDS011;16404;49.902;10.074;2023-01-01T04:02:32;31.55;;;18.38;;
29430;SDS011;16404;49.902;10.074;2023-01-01T04:05:21;36.30;;;19.73;;
29430;SDS011;16404;49.902;10.074;2023-01-01T04:08:07;35.75;;;20.08;;
29430;SDS011;16404;49.902;10.074;2023-01-01T04:10:56;33.75;;;18.50;;
29430;SDS011;16404;49.902;10.074;2023-01-01T04:13:46;35.75;;;19.63;;
29430;SDS011;16404;49.902;10.074;2023-01-01T04:16:31;36.30;;;20.42;;
29430;SDS011;16404;49.902;10.074;2023-01-01T04:19:15;34.40;;;20.80;;
29430;SDS011;16404;49.902;10.074;2023-01-01T04:22:00;39.22;;;21.75;;
29430;SDS011;16404;49.902;10.074;2023-01-01T04:24:45;41.58;;;22.13;;
29430;SDS011;16404;49.902;10.074;2023-01-01T04:27:30;43.03;;;22.33;;
29430;SDS011;16404;49.902;10.074;2023-01-01T04:30:14;41.17;;;21.38;;
29430;SDS011;16404;49.902;10.074;2023-01-01T04:33:00;40.15;;;23.00;;
29430;SDS011;16404;49.902;10.074;2023-01-01T04:35:44;33.83;;;20.92;;
29430;SDS011;16404;49.902;10.074;2023-01-01T04:38:29;37.60;;;21.60;;
29430;SDS011;16404;49.902;10.074;2023-01-01T04:41:13;41.13;;;21.67;;
29430;SDS011;16404;49.902;10.074;2023-01-01T04:43:58;39.58;;;22.23;;
29430;SDS011;16404;49.902;10.074;2023-01-01T04:49:27;39.40;;;22.30;;
29430;SDS011;16404;49.902;10.074;2023-01-01T04:52:12;39.67;;;22.55;;
29430;SDS011;16404;49.902;10.074;2023-01-01T04:54:57;42.47;;;23.05;;
29430;SDS011;16404;49.902;10.074;2023-01-01T04:57:41;36.17;;;23.33;;
29430;SDS011;16404;49.902;10.074;2023-01-01T05:00:26;42.67;;;22.98;;
29430;SDS011;16404;49.902;10.074;2023-01-01T05:03:10;39.58;;;23.85;;
29430;SDS011;16404;49.902;10.074;2023-01-01T05:06:02;41.80;;;23.55;;
29430;SDS011;16404;49.902;10.074;2023-01-01T05:08:49;42.17;;;23.60;;
29430;SDS011;16404;49.902;10.074;2023-01-01T05:11:39;43.00;;;24.20;;
29430;SDS011;16404;49.902;10.074;2023-01-01T05:14:24;45.15;;;25.40;;
29430;SDS011;16404;49.902;10.074;2023-01-01T05:17:08;45.97;;;24.60;;
29430;SDS011;16404;49.902;10.074;2023-01-01T05:19:53;43.75;;;24.08;;
29430;SDS011;16404;49.902;10.074;2023-01-01T05:22:38;48.50;;;25.55;;
29430;SDS011;16404;49.902;10.074;2023-01-01T05:25:22;46.03;;;25.63;;
29430;SDS011;16404;49.902;10.074;2023-01-01T05:28:07;45.95;;;25.02;;
29430;SDS011;16404;49.902;10.074;2023-01-01T05:30:52;40.88;;;24.08;;
29430;SDS011;16404;49.902;10.074;2023-01-01T05:33:37;42.78;;;24.77;;
29430;SDS011;16404;49.902;10.074;2023-01-01T05:36:25;49.90;;;26.17;;
29430;SDS011;16404;49.902;10.074;2023-01-01T05:39:11;42.67;;;24.33;;
29430;SDS011;16404;49.902;10.074;2023-01-01T05:41:56;48.97;;;26.00;;
29430;SDS011;16404;49.902;10.074;2023-01-01T05:44:40;43.40;;;25.25;;
29430;SDS011;16404;49.902;10.074;2023-01-01T05:47:26;39.83;;;23.02;;
29430;SDS011;16404;49.902;10.074;2023-01-01T05:50:11;46.25;;;24.10;;
29430;SDS011;16404;49.902;10.074;2023-01-01T05:52:55;45.63;;;23.20;;
29430;SDS011;16404;49.902;10.074;2023-01-01T05:55:40;44.22;;;23.80;;
29430;SDS011;16404;49.902;10.074;2023-01-01T05:58:26;42.70;;;23.55;;
29430;SDS011;16404;49.902;10.074;2023-01-01T06:01:12;37.28;;;22.67;;
29430;SDS011;16404;49.902;10.074;2023-01-01T06:04:15;41.50;;;22.42;;
29430;SDS011;16404;49.902;10.074;2023-01-01T06:07:00;44.17;;;23.10;;
29430;SDS011;16404;49.902;10.074;2023-01-01T06:09:44;36.78;;;21.67;;
29430;SDS011;16404;49.902;10.074;2023-01-01T06:12:29;43.30;;;21.60;;
29430;SDS011;16404;49.902;10.074;2023-01-01T06:15:13;36.38;;;21.08;;
29430;SDS011;16404;49.902;10.074;2023-01-01T06:17:58;41.65;;;21.48;;
29430;SDS011;16404;49.902;10.074;2023-01-01T06:20:43;35.17;;;19.48;;
29430;SDS011;16404;49.902;10.074;2023-01-01T06:23:27;38.22;;;20.85;;
29430;SDS011;16404;49.902;10.074;2023-01-01T06:26:16;35.83;;;19.90;;
29430;SDS011;16404;49.902;10.074;2023-01-01T06:29:03;37.35;;;20.77;;
29430;SDS011;16404;49.902;10.074;2023-01-01T06:31:47;40.70;;;20.90;;
29430;SDS011;16404;49.902;10.074;2023-01-01T06:34:32;38.08;;;21.25;;
29430;SDS011;16404;49.902;10.074;2023-01-01T06:37:17;35.72;;;19.77;;
29430;SDS011;16404;49.902;10.074;2023-01-01T06:40:01;32.92;;;19.02;;
29430;SDS011;16404;49.902;10.074;2023-01-01T06:45:31;39.33;;;19.60;;
29430;SDS011;16404;49.902;10.074;2023-01-01T06:48:15;37.00;;;20.00;;
29430;SDS011;16404;49.902;10.074;2023-01-01T06:51:10;32.03;;;19.15;;
29430;SDS011;16404;49.902;10.074;2023-01-01T06:54:01;35.78;;;20.02;;
29430;SDS011;16404;49.902;10.074;2023-01-01T06:56:46;37.60;;;20.10;;
29430;SDS011;16404;49.902;10.074;2023-01-01T06:59:31;35.92;;;19.88;;
29430;SDS011;16404;49.902;10.074;2023-01-01T07:02:15;34.80;;;20.00;;
29430;SDS011;16404;49.902;10.074;2023-01-01T07:05:00;34.88;;;19.40;;
29430;SDS011;16404;49.902;10.074;2023-01-01T07:07:45;37.65;;;21.40;;
29430;SDS011;16404;49.902;10.074;2023-01-01T07:10:30;39.78;;;20.45;;
29430;SDS011;16404;49.902;10.074;2023-01-01T07:13:15;36.45;;;20.52;;
29430;SDS011;16404;49.902;10.074;2023-01-01T07:16:00;40.25;;;22.10;;
29430;SDS011;16404;49.902;10.074;2023-01-01T07:18:46;35.03;;;19.30;;
29430;SDS011;16404;49.902;10.074;2023-01-01T07:24:26;37.30;;;20.08;;
29430;SDS011;16404;49.902;10.074;2023-01-01T07:27:11;40.03;;;20.05;;
29430;SDS011;16404;49.902;10.074;2023-01-01T07:29:55;36.63;;;20.42;;
29430;SDS011;16404;49.902;10.074;2023-01-01T07:32:40;33.50;;;19.33;;
29430;SDS011;16404;49.902;10.074;2023-01-01T07:35:25;35.08;;;19.10;;
29430;SDS011;16404;49.902;10.074;2023-01-01T07:38:09;36.85;;;19.50;;
29430;SDS011;16404;49.902;10.074;2023-01-01T07:40:54;36.80;;;18.27;;
29430;SDS011;16404;49.902;10.074;2023-01-01T07:43:39;31.77;;;18.60;;
29430;SDS011;16404;49.902;10.074;2023-01-01T07:46:23;32.05;;;17.80;;
29430;SDS011;16404;49.902;10.074;2023-01-01T07:49:08;32.90;;;17.88;;
29430;SDS011;16404;49.902;10.074;2023-01-01T07:51:53;34.63;;;17.75;;
29430;SDS011;16404;49.902;10.074;2023-01-01T07:54:37;32.22;;;17.08;;
29430;SDS011;16404;49.902;10.074;2023-01-01T07:57:22;25.02;;;14.68;;
29430;SDS011;16404;49.902;10.074;2023-01-01T08:00:07;25.17;;;14.55;;
29430;SDS011;16404;49.902;10.074;2023-01-01T08:02:56;27.38;;;14.43;;
29430;SDS011;16404;49.902;10.074;2023-01-01T08:08:26;24.25;;;12.63;;
29430;SDS011;16404;49.902;10.074;2023-01-01T08:11:10;25.23;;;12.57;;
29430;SDS011;16404;49.902;10.074;2023-01-01T08:13:55;24.25;;;13.30;;
29430;SDS011;16404;49.902;10.074;2023-01-01T08:16:40;26.35;;;12.43;;
29430;SDS011;16404;49.902;10.074;2023-01-01T08:19:24;18.90;;;11.68;;
29430;SDS011;16404;49.902;10.074;2023-01-01T08:22:09;18.52;;;10.40;;
29430;SDS011;16404;49.902;10.074;2023-01-01T08:24:54;19.83;;;11.73;;
29430;SDS011;16404;49.902;10.074;2023-01-01T08:27:38;24.52;;;12.18;;
29430;SDS011;16404;49.902;10.074;2023-01-01T08:30:23;22.45;;;11.55;;
29430;SDS011;16404;49.902;10.074;2023-01-01T08:33:07;23.73;;;13.00;;
29430;SDS011;16404;49.902;10.074;2023-01-01T08:35:52;23.90;;;12.15;;
29430;SDS011;16404;49.902;10.074;2023-01-01T08:38:37;21.02;;;10.73;;
29430;SDS011;16404;49.902;10.074;2023-01-01T08:41:21;21.80;;;10.18;;
29430;SDS011;16404;49.902;10.074;2023-01-01T08:44:06;16.10;;;9.63;;
29430;SDS011;16404;49.902;10.074;2023-01-01T08:46:51;18.83;;;9.23;;
29430;SDS011;16404;49.902;10.074;2023-01-01T08:49:36;16.27;;;9.10;;
29430;SDS011;16404;49.902;10.074;2023-01-01T08:52:21;16.58;;;9.25;;
29430;SDS011;16404;49.902;10.074;2023-01-01T08:55:05;19.63;;;9.32;;
29430;SDS011;16404;49.902;10.074;2023-01-01T08:57:50;17.63;;;9.10;;
29430;SDS011;16404;49.902;10.074;2023-01-01T09:00:35;14.23;;;8.50;;
29430;SDS011;16404;49.902;10.074;2023-01-01T09:03:19;13.68;;;8.40;;
29430;SDS011;16404;49.902;10.074;2023-01-01T09:06:04;13.48;;;7.93;;
29430;SDS011;16404;49.902;10.074;2023-01-01T09:08:48;14.27;;;7.75;;
29430;SDS011;16404;49.902;10.074;2023-01-01T09:11:33;18.42;;;7.75;;
29430;SDS011;16404;49.902;10.074;2023-01-01T09:14:19;16.88;;;8.02;;
29430;SDS011;16404;49.902;10.074;2023-01-01T09:17:04;15.07;;;8.07;;
29430;SDS011;16404;49.902;10.074;2023-01-01T09:19:49;17.10;;;7.70;;
29430;SDS011;16404;49.902;10.074;2023-01-01T09:22:34;15.50;;;7.85;;
29430;SDS011;16404;49.902;10.074;2023-01-01T09:25:18;17.88;;;8.02;;
29430;SDS011;16404;49.902;10.074;2023-01-01T09:28:04;13.55;;;7.13;;
29430;SDS011;16404;49.902;10.074;2023-01-01T09:30:50;12.77;;;6.70;;
29430;SDS011;16404;49.902;10.074;2023-01-01T09:33:35;10.73;;;6.80;;
29430;SDS011;16404;49.902;10.074;2023-01-01T09:39:04;16.05;;;6.65;;
29430;SDS011;16404;49.902;10.074;2023-01-01T09:45:04;12.25;;;6.35;;
29430;SDS011;16404;49.902;10.074;2023-01-01T09:48:09;12.50;;;6.35;;
29430;SDS011;16404;49.902;10.074;2023-01-01T09:50:56;12.20;;;6.10;;
29430;SDS011;16404;49.902;10.074;2023-01-01T09:56:34;9.63;;;5.57;;
29430;SDS011;16404;49.902;10.074;2023-01-01T09:59:19;11.00;;;5.68;;
29430;SDS011;16404;49.902;10.074;2023-01-01T10:05:08;10.05;;;5.57;;
29430;SDS011;16404;49.902;10.074;2023-01-01T10:08:20;10.40;;;5.35;;
29430;SDS011;16404;49.902;10.074;2023-01-01T10:17:18;11.45;;;5.00;;
29430;SDS011;16404;49.902;10.074;2023-01-01T10:20:17;9.07;;;4.88;;
29430;SDS011;16404;49.902;10.074;2023-01-01T10:23:18;12.98;;;5.20;;
29430;SDS011;16404;49.902;10.074;2023-01-01T10:26:10;9.15;;;4.90;;
29430;SDS011;16404;49.902;10.074;2023-01-01T10:29:04;9.70;;;4.78;;
29430;SDS011;16404;49.902;10.074;2023-01-01T10:31:50;8.75;;;5.35;;
29430;SDS011;16404;49.902;10.074;2023-01-01T10:34:37;7.82;;;4.68;;
29430;SDS011;16404;49.902;10.074;2023-01-01T10:37:22;10.73;;;5.10;;
29430;SDS011;16404;49.902;10.074;2023-01-01T10:42:59;8.75;;;5.13;;
29430;SDS011;16404;49.902;10.074;2023-01-01T10:45:54;12.00;;;5.88;;
29430;SDS011;16404;49.902;10.074;2023-01-01T10:48:39;11.05;;;6.65;;
29430;SDS011;16404;49.902;10.074;2023-01-01T10:51:24;12.23;;;6.10;;
29430;SDS011;16404;49.902;10.074;2023-01-01T11:00:18;10.07;;;4.60;;
29430;SDS011;16404;49.902;10.074;2023-01-01T11:03:18;6.15;;;3.88;;
29430;SDS011;16404;49.902;10.074;2023-01-01T11:06:17;5.28;;;3.60;;
29430;SDS011;16404;49.902;10.074;2023-01-01T11:09:05;10.60;;;4.43;;
29430;SDS011;16404;49.902;10.074;2023-01-01T11:12:04;7.75;;;4.20;;
29430;SDS011;16404;49.902;10.074;2023-01-01T11:14:52;10.23;;;4.72;;
29430;SDS011;16404;49.902;10.074;2023-01-01T11:17:37;9.10;;;3.95;;
29430;SDS011;16404;49.902;10.074;2023-01-01T11:20:22;10.60;;;4.10;;
29430;SDS011;16404;49.902;10.074;2023-01-01T11:23:26;10.70;;;3.63;;
29430;SDS011;16404;49.902;10.074;2023-01-01T11:29:02;7.43;;;3.45;;
29430;SDS011;16404;49.902;10.074;2023-01-01T11:35:13;8.57;;;2.83;;
29430;SDS011;16404;49.902;10.074;2023-01-01T11:38:02;11.75;;;2.90;;
29430;SDS011;16404;49.902;10.074;2023-01-01T11:40:47;11.07;;;3.92;;
29430;SDS011;16404;49.902;10.074;2023-01-01T11:43:37;8.13;;;3.08;;
29430;SDS011;16404;49.902;10.074;2023-01-01T11:46:31;6.95;;;2.50;;
29430;SDS011;16404;49.902;10.074;2023-01-01T11:49:20;6.85;;;2.60;;
29430;SDS011;16404;49.902;10.074;2023-01-01T11:55:23;5.45;;;3.03;;
29430;SDS011;16404;49.902;10.074;2023-01-01T12:04:31;7.07;;;2.47;;
29430;SDS011;16404;49.902;10.074;2023-01-01T12:07:30;9.23;;;2.70;;
29430;SDS011;16404;49.902;10.074;2023-01-01T12:10:26;6.15;;;2.83;;
29430;SDS011;16404;49.902;10.074;2023-01-01T12:13:17;6.72;;;3.00;;
29430;SDS011;16404;49.902;10.074;2023-01-01T12:16:08;10.95;;;3.22;;
29430;SDS011;16404;49.902;10.074;2023-01-01T12:18:59;6.13;;;2.55;;
29430;SDS011;16404;49.902;10.074;2023-01-01T12:21:53;5.70;;;2.67;;
29430;SDS011;16404;49.902;10.074;2023-01-01T12:24:42;9.25;;;3.03;;
29430;SDS011;16404;49.902;10.074;2023-01-01T12:58:21;8.95;;;2.95;;
29430;SDS011;16404;49.902;10.074;2023-01-01T13:01:29;10.80;;;3.22;;
29430;SDS011;16404;49.902;10.074;2023-01-01T13:04:16;12.07;;;3.10;;
29430;SDS011;16404;49.902;10.074;2023-01-01T13:07:05;8.52;;;4.05;;
29430;SDS011;16404;49.902;10.074;2023-01-01T13:09:54;10.40;;;3.55;;
29430;SDS011;16404;49.902;10.074;2023-01-01T13:15:45;16.50;;;5.82;;
29430;SDS011;16404;49.902;10.074;2023-01-01T13:18:37;14.65;;;4.68;;
29430;SDS011;16404;49.902;10.074;2023-01-01T13:21:22;9.32;;;3.40;;
29430;SDS011;16404;49.902;10.074;2023-01-01T13:24:19;12.80;;;5.78;;
29430;SDS011;16404;49.902;10.074;2023-01-01T13:27:05;9.25;;;4.43;;
29430;SDS011;16404;49.902;10.074;2023-01-01T13:29:53;6.93;;;3.17;;
29430;SDS011;16404;49.902;10.074;2023-01-01T13:38:55;5.80;;;2.75;;
29430;SDS011;16404;49.902;10.074;2023-01-01T13:41:44;8.98;;;3.00;;
29430;SDS011;16404;49.902;10.074;2023-01-01T13:44:28;5.03;;;2.78;;
29430;SDS011;16404;49.902;10.074;2023-01-01T13:47:31;7.65;;;2.97;;
29430;SDS011;16404;49.902;10.074;2023-01-01T13:53:22;7.50;;;2.83;;
29430;SDS011;16404;49.902;10.074;2023-01-01T14:02:39;8.40;;;3.47;;
29430;SDS011;16404;49.902;10.074;2023-01-01T14:05:42;11.82;;;4.28;;
29430;SDS011;16404;49.902;10.074;2023-01-01T14:08:42;10.55;;;4.15;;
29430;SDS011;16404;49.902;10.074;2023-01-01T14:11:26;8.32;;;3.40;;
29430;SDS011;16404;49.902;10.074;2023-01-01T14:17:15;9.15;;;3.47;;
29430;SDS011;16404;49.902;10.074;2023-01-01T14:20:18;11.95;;;3.45;;
29430;SDS011;16404;49.902;10.074;2023-01-01T14:26:27;5.60;;;3.20;;
29430;SDS011;16404;49.902;10.074;2023-01-01T14:29:23;8.57;;;3.90;;
29430;SDS011;16404;49.902;10.074;2023-01-01T14:32:14;13.98;;;6.45;;
29430;SDS011;16404;49.902;10.074;2023-01-01T14:35:10;11.88;;;6.07;;
29430;SDS011;16404;49.902;10.074;2023-01-01T14:38:14;13.35;;;5.10;;
29430;SDS011;16404;49.902;10.074;2023-01-01T14:41:07;15.85;;;4.43;;
29430;SDS011;16404;49.902;10.074;2023-01-01T14:44:34;12.90;;;4.03;;
29430;SDS011;16404;49.902;10.074;2023-01-01T14:47:26;11.52;;;4.55;;
29430;SDS011;16404;49.902;10.074;2023-01-01T14:50:27;14.85;;;5.47;;
29430;SDS011;16404;49.902;10.074;2023-01-01T14:53:15;12.48;;;6.63;;
29430;SDS011;16404;49.902;10.074;2023-01-01T14:56:03;13.55;;;6.47;;
29430;SDS011;16404;49.902;10.074;2023-01-01T14:58:50;10.90;;;4.93;;
29430;SDS011;16404;49.902;10.074;2023-01-01T15:01:34;13.10;;;5.57;;
29430;SDS011;16404;49.902;10.074;2023-01-01T15:04:21;11.70;;;4.97;;
29430;SDS011;16404;49.902;10.074;2023-01-01T15:10:10;9.65;;;3.53;;
29430;SDS011;16404;49.902;10.074;2023-01-01T15:12:56;7.30;;;3.30;;
29430;SDS011;16404;49.902;10.074;2023-01-01T15:15:42;8.85;;;3.90;;
29430;SDS011;16404;49.902;10.074;2023-01-01T15:18:35;6.82;;;3.25;;
29430;SDS011;16404;49.902;10.074;2023-01-01T15:24:18;7.75;;;3.70;;
29430;SDS011;16404;49.902;10.074;2023-01-01T15:27:05;7.70;;;3.53;;
29430;SDS011;16404;49.902;10.074;2023-01-01T15:29:51;9.77;;;3.63;;
29430;SDS011;16404;49.902;10.074;2023-01-01T15:32:36;5.45;;;3.30;;
29430;SDS011;16404;49.902;10.074;2023-01-01T15:38:23;8.50;;;3.65;;
29430;SDS011;16404;49.902;10.074;2023-01-01T15:44:32;6.88;;;3.45;;
29430;SDS011;16404;49.902;10.074;2023-01-01T15:47:19;6.93;;;3.97;;
29430;SDS011;16404;49.902;10.074;2023-01-01T15:50:10;11.63;;;4.60;;
29430;SDS011;16404;49.902;10.074;2023-01-01T15:53:09;9.32;;;4.03;;
29430;SDS011;16404;49.902;10.074;2023-01-01T15:56:13;9.25;;;3.83;;
29430;SDS011;16404;49.902;10.074;2023-01-01T15:59:33;9.98;;;3.85;;
29430;SDS011;16404;49.902;10.074;2023-01-01T16:04:59;11.13;;;4.07;;
29430;SDS011;16404;49.902;10.074;2023-01-01T16:07:44;10.98;;;4.20;;
29430;SDS011;16404;49.902;10.074;2023-01-01T16:10:29;8.13;;;3.20;;
29430;SDS011;16404;49.902;10.074;2023-01-01T16:13:17;6.90;;;3.40;;
29430;SDS011;16404;49.902;10.074;2023-01-01T16:18:47;11.68;;;4.10;;
29430;SDS011;16404;49.902;10.074;2023-01-01T16:21:31;9.23;;;3.95;;
29430;SDS011;16404;49.902;10.074;2023-01-01T16:24:16;9.48;;;4.60;;
29430;SDS011;16404;49.902;10.074;2023-01-01T16:27:01;7.95;;;4.97;;
29430;SDS011;16404;49.902;10.074;2023-01-01T16:29:46;8.18;;;3.83;;
29430;SDS011;16404;49.902;10.074;2023-01-01T16:32:31;10.52;;;4.75;;
29430;SDS011;16404;49.902;10.074;2023-01-01T16:35:15;8.70;;;3.92;;
29430;SDS011;16404;49.902;10.074;2023-01-01T16:38:00;7.57;;;4.10;;
29430;SDS011;16404;49.902;10.074;2023-01-01T16:40:44;7.38;;;4.15;;
29430;SDS011;16404;49.902;10.074;2023-01-01T16:43:29;10.40;;;4.43;;
29430;SDS011;16404;49.902;10.074;2023-01-01T16:46:13;10.85;;;5.40;;
29430;SDS011;16404;49.902;10.074;2023-01-01T16:48:58;11.60;;;4.60;;
29430;SDS011;16404;49.902;10.074;2023-01-01T16:51:43;13.77;;;3.92;;
29430;SDS011;16404;49.902;10.074;2023-01-01T16:54:27;10.93;;;3.70;;
29430;SDS011;16404;49.902;10.074;2023-01-01T16:57:12;8.68;;;3.35;;
29430;SDS011;16404;49.902;10.074;2023-01-01T16:59:57;11.65;;;4.63;;
29430;SDS011;16404;49.902;10.074;2023-01-01T17:02:42;8.25;;;4.57;;
29430;SDS011;16404;49.902;10.074;2023-01-01T17:05:26;7.10;;;4.20;;
29430;SDS011;16404;49.902;10.074;2023-01-01T17:08:11;9.77;;;4.95;;
29430;SDS011;16404;49.902;10.074;2023-01-01T17:13:51;9.43;;;5.13;;
29430;SDS011;16404;49.902;10.074;2023-01-01T17:16:35;10.68;;;5.47;;
29430;SDS011;16404;49.902;10.074;2023-01-01T17:19:20;18.55;;;10.38;;
29430;SDS011;16404;49.902;10.074;2023-01-01T17:22:05;24.95;;;12.13;;
29430;SDS011;16404;49.902;10.074;2023-01-01T17:24:50;20.17;;;10.48;;
29430;SDS011;16404;49.902;10.074;2023-01-01T17:27:34;14.98;;;6.95;;
29430;SDS011;16404;49.902;10.074;2023-01-01T17:30:19;10.70;;;6.05;;
29430;SDS011;16404;49.902;10.074;2023-01-01T17:33:03;15.38;;;6.00;;
29430;SDS011;16404;49.902;10.074;2023-01-01T17:35:48;12.38;;;5.28;;
29430;SDS011;16404;49.902;10.074;2023-01-01T17:38:34;15.75;;;5.50;;
29430;SDS011;16404;49.902;10.074;2023-01-01T17:44:04;8.63;;;5.10;;
29430;SDS011;16404;49.902;10.074;2023-01-01T17:46:49;11.73;;;5.78;;
29430;SDS011;16404;49.902;10.074;2023-01-01T17:49:34;20.17;;;8.35;;
29430;SDS011;16404;49.902;10.074;2023-01-01T17:52:18;14.75;;;7.93;;
29430;SDS011;16404;49.902;10.074;2023-01-01T17:55:03;22.85;;;9.02;;
29430;SDS011;16404;49.902;10.074;2023-01-01T18:00:34;17.83;;;8.45;;
29430;SDS011;16404;49.902;10.074;2023-01-01T18:03:19;15.80;;;8.05;;
29430;SDS011;16404;49.902;10.074;2023-01-01T18:06:05;15.38;;;7.50;;
29430;SDS011;16404;49.902;10.074;2023-01-01T18:08:54;19.10;;;8.40;;
29430;SDS011;16404;49.902;10.074;2023-01-01T18:11:43;20.15;;;9.38;;
29430;SDS011;16404;49.902;10.074;2023-01-01T18:14:28;24.75;;;11.27;;
29430;SDS011;16404;49.902;10.074;2023-01-01T18:17:12;19.55;;;9.73;;
29430;SDS011;16404;49.902;10.074;2023-01-01T18:19:57;18.25;;;8.70;;
29430;SDS011;16404;49.902;10.074;2023-01-01T18:22:42;17.35;;;9.23;;
29430;SDS011;16404;49.902;10.074;2023-01-01T18:25:27;17.80;;;8.75;;
29430;SDS011;16404;49.902;10.074;2023-01-01T18:28:11;15.63;;;10.05;;
29430;SDS011;16404;49.902;10.074;2023-01-01T18:31:06;18.70;;;8.65;;
29430;SDS011;16404;49.902;10.074;2023-01-01T18:36:36;19.42;;;8.13;;
29430;SDS011;16404;49.902;10.074;2023-01-01T18:39:21;13.00;;;7.93;;
29430;SDS011;16404;49.902;10.074;2023-01-01T18:45:21;12.07;;;6.53;;
29430;SDS011;16404;49.902;10.074;2023-01-01T18:48:09;16.63;;;8.50;;
29430;SDS011;16404;49.902;10.074;2023-01-01T18:50:56;12.55;;;7.35;;
29430;SDS011;16404;49.902;10.074;2023-01-01T18:53:40;17.00;;;7.80;;
29430;SDS011;16404;49.902;10.074;2023-01-01T18:56:25;15.85;;;7.90;;
29430;SDS011;16404;49.902;10.074;2023-01-01T18:59:20;17.58;;;7.40;;
29430;SDS011;16404;49.902;10.074;2023-01-01T19:02:51;12.95;;;7.05;;
29430;SDS011;16404;49.902;10.074;2023-01-01T19:05:23;19.08;;;7.93;;
29430;SDS011;16404;49.902;10.074;2023-01-01T19:08:12;14.63;;;8.15;;
29430;SDS011;16404;49.902;10.074;2023-01-01T19:11:01;15.48;;;7.43;;